createdAt,value
2022-12-06T00:01:34.426Z,23.55
2022-12-06T00:04:06.098Z,23.33
2022-12-06T00:06:39.637Z,23.73
2022-12-06T00:09:11.714Z,23.98
2022-12-06T00:11:40.683Z,21.25
2022-12-06T00:14:09.133Z,19.45
2022-12-06T00:16:38.472Z,19.40
2022-12-06T00:19:08.243Z,18.83
2022-12-06T00:21:39.909Z,20.38
2022-12-06T00:24:11.776Z,19.52
2022-12-06T00:26:43.130Z,21.17
2022-12-06T00:29:17.100Z,20.40
2022-12-06T00:31:46.329Z,19.65
2022-12-06T00:34:15.709Z,19.02
2022-12-06T00:36:44.804Z,19.38
2022-12-06T00:39:20.315Z,19.30
2022-12-06T00:41:50.271Z,19.40
2022-12-06T00:44:18.865Z,20.05
2022-12-06T00:46:47.487Z,20.70
2022-12-06T00:49:16.503Z,23.00
2022-12-06T00:51:45.076Z,22.33
2022-12-06T00:54:15.798Z,21.48
2022-12-06T00:56:44.395Z,24.15
2022-12-06T00:59:12.799Z,26.75
2022-12-06T01:01:42.674Z,27.40
2022-12-06T01:04:11.210Z,28.20
2022-12-06T01:06:40.081Z,28.63
2022-12-06T01:09:12.199Z,25.13
2022-12-06T01:14:09.056Z,28.02
2022-12-06T01:16:37.540Z,29.60
2022-12-06T01:19:06.904Z,24.63
2022-12-06T01:21:35.468Z,27.08
2022-12-06T01:24:04.242Z,24.75
2022-12-06T01:26:35.498Z,23.90
2022-12-06T01:29:05.076Z,24.40
2022-12-06T01:31:38.099Z,24.98
2022-12-06T01:34:16.070Z,24.80
2022-12-06T01:36:44.466Z,24.85
2022-12-06T01:39:12.721Z,24.42
2022-12-06T01:41:41.028Z,23.13
2022-12-06T01:44:40.792Z,24.55
2022-12-06T01:47:19.104Z,22.45
2022-12-06T01:50:12.488Z,24.42
2022-12-06T01:53:03.473Z,23.45
2022-12-06T01:55:35.790Z,25.75
2022-12-06T01:58:12.079Z,21.83
2022-12-06T02:00:40.616Z,23.42
2022-12-06T02:03:18.182Z,22.15
2022-12-06T02:05:46.831Z,21.20
2022-12-06T02:08:17.120Z,21.05
2022-12-06T02:10:47.667Z,21.13
2022-12-06T02:13:17.423Z,20.40
2022-12-06T02:15:59.446Z,19.50
2022-12-06T02:18:47.733Z,19.48
2022-12-06T02:21:41.841Z,21.55
2022-12-06T02:24:37.770Z,19.48
2022-12-06T02:27:43.140Z,19.45
2022-12-06T02:30:42.091Z,19.67
2022-12-06T02:33:22.789Z,18.80
2022-12-06T02:36:06.274Z,20.60
2022-12-06T02:38:44.966Z,17.70
2022-12-06T02:41:23.222Z,17.25
2022-12-06T02:43:59.318Z,18.25
2022-12-06T02:46:31.036Z,16.63
2022-12-06T02:49:02.827Z,17.25
2022-12-06T02:51:33.754Z,16.75
2022-12-06T02:54:05.815Z,16.83
2022-12-06T02:56:35.149Z,16.02
2022-12-06T02:59:03.746Z,16.77
2022-12-06T03:01:35.390Z,16.02
2022-12-06T03:04:33.931Z,18.40
2022-12-06T03:07:26.546Z,16.35
2022-12-06T03:10:31.773Z,16.65
2022-12-06T03:13:13.685Z,17.13
2022-12-06T03:15:58.151Z,17.15
2022-12-06T03:18:30.637Z,17.02
2022-12-06T03:21:48.315Z,15.95
2022-12-06T03:24:17.644Z,16.05
2022-12-06T03:26:50.673Z,17.13
2022-12-06T03:29:22.295Z,15.73
2022-12-06T03:31:53.136Z,16.23
2022-12-06T03:34:37.270Z,16.92
2022-12-06T03:37:08.188Z,16.17
2022-12-06T03:39:38.642Z,16.83
2022-12-06T03:42:08.098Z,18.65
2022-12-06T03:44:37.052Z,16.38
2022-12-06T03:47:24.521Z,17.95
2022-12-06T03:50:01.289Z,17.98
2022-12-06T03:52:31.006Z,18.02
2022-12-06T03:54:59.277Z,17.00
2022-12-06T03:57:27.876Z,16.33
2022-12-06T03:59:56.192Z,17.77
2022-12-06T04:02:24.685Z,18.00
2022-12-06T04:04:52.978Z,17.55
2022-12-06T04:07:21.471Z,18.33
2022-12-06T04:09:49.901Z,17.20
2022-12-06T04:12:18.552Z,17.50
2022-12-06T04:14:46.613Z,17.27
2022-12-06T04:17:15.179Z,16.98
2022-12-06T04:19:45.131Z,17.58
2022-12-06T04:22:16.568Z,18.42
2022-12-06T04:24:44.652Z,16.73
2022-12-06T04:27:12.848Z,17.20
2022-12-06T04:29:41.163Z,17.50
2022-12-06T04:32:09.453Z,18.90
2022-12-06T04:34:37.853Z,17.80
2022-12-06T04:37:06.607Z,17.25
2022-12-06T04:39:35.626Z,16.60
2022-12-06T04:42:04.416Z,17.02
2022-12-06T04:44:32.678Z,17.08
2022-12-06T04:47:01.420Z,15.85
2022-12-06T04:49:30.108Z,17.02
2022-12-06T04:51:58.762Z,15.40
2022-12-06T04:54:29.633Z,14.90
2022-12-06T04:56:59.725Z,13.98
2022-12-06T04:59:29.448Z,13.55
2022-12-06T05:01:57.839Z,14.55
2022-12-06T05:04:26.598Z,14.25
2022-12-06T05:07:00.331Z,14.35
2022-12-06T05:09:28.999Z,14.77
2022-12-06T05:11:57.519Z,13.48
2022-12-06T05:14:25.871Z,12.88
2022-12-06T05:16:54.200Z,13.52
2022-12-06T05:19:22.569Z,12.60
2022-12-06T05:21:50.632Z,13.43
2022-12-06T05:24:20.559Z,14.05
2022-12-06T05:26:49.076Z,14.20
2022-12-06T05:29:17.691Z,14.75
2022-12-06T05:31:46.224Z,16.70
2022-12-06T05:34:15.902Z,16.73
2022-12-06T05:36:44.872Z,16.50
2022-12-06T05:39:13.932Z,17.67
2022-12-06T05:41:42.541Z,15.95
2022-12-06T05:44:13.062Z,15.73
2022-12-06T05:46:41.866Z,14.95
2022-12-06T05:49:10.860Z,13.65
2022-12-06T05:51:39.422Z,14.48
2022-12-06T05:54:08.330Z,15.27
2022-12-06T05:56:36.963Z,14.50
2022-12-06T05:59:05.694Z,14.38
2022-12-06T06:01:36.164Z,13.77
2022-12-06T06:04:05.377Z,15.25
2022-12-06T06:06:35.350Z,14.73
2022-12-06T06:09:03.973Z,13.38
2022-12-06T06:11:32.401Z,13.73
2022-12-06T06:14:00.711Z,14.18
2022-12-06T06:16:28.889Z,14.38
2022-12-06T06:18:57.429Z,15.15
2022-12-06T06:21:25.852Z,15.95
2022-12-06T06:23:54.236Z,16.25
2022-12-06T06:26:22.785Z,17.05
2022-12-06T06:28:51.052Z,18.10
2022-12-06T06:31:19.391Z,18.48
2022-12-06T06:33:48.109Z,18.60
2022-12-06T06:36:16.654Z,18.92
2022-12-06T06:38:44.882Z,18.30
2022-12-06T06:41:13.103Z,20.55
2022-12-06T06:43:41.798Z,19.25
2022-12-06T06:46:11.745Z,20.83
2022-12-06T06:48:41.279Z,20.33
2022-12-06T06:51:12.949Z,19.98
2022-12-06T06:53:41.559Z,18.35
2022-12-06T06:56:10.500Z,17.33
2022-12-06T06:58:39.358Z,18.30
2022-12-06T07:01:09.476Z,16.55
2022-12-06T07:03:38.114Z,17.33
2022-12-06T07:06:10.217Z,16.38
2022-12-06T07:08:40.328Z,18.60
2022-12-06T07:11:10.573Z,18.73
2022-12-06T07:13:40.729Z,19.70
2022-12-06T07:16:16.516Z,18.27
2022-12-06T07:18:44.891Z,20.17
2022-12-06T07:21:15.504Z,21.70
2022-12-06T07:23:44.124Z,21.92
2022-12-06T07:26:18.927Z,21.45
2022-12-06T07:28:49.044Z,22.92
2022-12-06T07:31:28.560Z,23.83
2022-12-06T07:34:00.106Z,23.60
2022-12-06T07:36:32.006Z,22.33
2022-12-06T07:39:01.229Z,21.63
2022-12-06T07:41:31.073Z,21.05
2022-12-06T07:44:01.408Z,21.20
2022-12-06T07:46:31.764Z,22.38
2022-12-06T07:49:00.588Z,22.60
2022-12-06T07:51:29.064Z,24.17
2022-12-06T07:53:57.480Z,24.67
2022-12-06T07:56:26.183Z,25.67
2022-12-06T07:58:55.625Z,25.23
2022-12-06T08:01:24.088Z,25.20
2022-12-06T08:03:52.932Z,26.02
2022-12-06T08:06:21.159Z,23.98
2022-12-06T08:08:49.782Z,23.02
2022-12-06T08:11:18.077Z,24.55
2022-12-06T08:13:46.465Z,25.63
2022-12-06T08:16:15.032Z,26.00
2022-12-06T08:18:43.976Z,24.02
2022-12-06T08:21:12.667Z,23.58
2022-12-06T08:23:41.179Z,23.35
2022-12-06T08:26:13.331Z,23.95
2022-12-06T08:28:41.808Z,21.65
2022-12-06T08:31:17.987Z,21.45
2022-12-06T08:33:55.246Z,21.27
2022-12-06T08:36:25.769Z,22.23
2022-12-06T08:38:55.051Z,19.85
2022-12-06T08:41:25.306Z,20.67
2022-12-06T08:43:53.898Z,21.60
2022-12-06T08:46:22.736Z,22.13
2022-12-06T08:48:52.210Z,22.30
2022-12-06T08:51:21.961Z,22.10
2022-12-06T08:53:52.539Z,22.38
2022-12-06T08:56:23.387Z,21.45
2022-12-06T08:58:56.966Z,17.23
2022-12-06T09:01:37.508Z,17.98
2022-12-06T09:04:10.765Z,17.90
2022-12-06T09:06:44.430Z,15.85
2022-12-06T09:09:23.367Z,15.18
2022-12-06T09:11:53.988Z,14.77
2022-12-06T09:14:22.635Z,15.05
2022-12-06T09:16:52.323Z,15.15
2022-12-06T09:19:21.203Z,14.45
2022-12-06T09:21:49.349Z,15.15
2022-12-06T09:24:19.054Z,14.68
2022-12-06T09:26:48.004Z,13.65
2022-12-06T09:29:17.910Z,13.50
2022-12-06T09:31:47.728Z,13.35
2022-12-06T09:34:17.372Z,14.77
2022-12-06T09:36:55.964Z,13.38
2022-12-06T09:39:48.974Z,13.27
2022-12-06T09:42:38.703Z,13.10
2022-12-06T09:45:14.341Z,14.07
2022-12-06T09:48:27.125Z,13.23
2022-12-06T09:54:12.653Z,12.25
2022-12-06T09:56:51.584Z,12.77
2022-12-06T09:59:37.929Z,13.20
2022-12-06T10:02:20.833Z,11.68
2022-12-06T10:04:59.109Z,11.75
2022-12-06T10:07:56.448Z,12.45
2022-12-06T10:10:38.453Z,11.00
2022-12-06T10:13:21.919Z,7.80
2022-12-06T10:16:26.346Z,6.97
2022-12-06T10:19:10.864Z,5.80
2022-12-06T10:22:06.361Z,6.05
2022-12-06T10:24:47.033Z,6.65
2022-12-06T10:27:41.029Z,7.40
2022-12-06T10:30:15.539Z,8.93
2022-12-06T10:32:49.925Z,10.35
2022-12-06T10:35:52.364Z,11.32
2022-12-06T10:38:28.044Z,10.45
2022-12-06T10:41:15.078Z,13.88
2022-12-06T10:43:58.638Z,13.55
2022-12-06T10:46:50.195Z,13.52
2022-12-06T10:49:18.793Z,12.48
2022-12-06T10:51:54.309Z,12.55
2022-12-06T10:54:47.236Z,12.27
2022-12-06T10:57:23.869Z,9.80
2022-12-06T11:00:20.050Z,10.45
2022-12-06T11:03:07.740Z,10.38
2022-12-06T11:05:50.053Z,11.35
2022-12-06T11:08:27.995Z,12.80
2022-12-06T11:10:59.208Z,11.88
2022-12-06T11:13:42.858Z,16.77
2022-12-06T11:16:33.876Z,12.77
2022-12-06T11:19:34.768Z,11.73
2022-12-06T11:22:12.689Z,10.70
2022-12-06T11:24:53.763Z,15.40
2022-12-06T11:27:31.376Z,9.45
2022-12-06T11:30:01.447Z,9.32
2022-12-06T11:32:32.672Z,8.77
2022-12-06T11:35:01.846Z,7.95
2022-12-06T11:37:34.429Z,6.75
2022-12-06T11:40:30.123Z,6.95
2022-12-06T11:43:02.996Z,5.68
2022-12-06T11:45:34.729Z,5.70
2022-12-06T11:48:20.292Z,6.47
2022-12-06T11:50:50.928Z,5.90
2022-12-06T11:53:31.023Z,6.47
2022-12-06T11:56:41.692Z,6.07
2022-12-06T11:59:22.100Z,6.63
2022-12-06T12:01:52.772Z,8.45
2022-12-06T12:04:36.666Z,18.33
2022-12-06T12:07:11.916Z,9.90
2022-12-06T12:09:59.831Z,18.15
2022-12-06T12:12:40.946Z,8.70
2022-12-06T12:15:18.706Z,8.10
2022-12-06T12:17:51.840Z,9.50
2022-12-06T12:20:29.655Z,8.27
2022-12-06T12:23:05.389Z,7.97
2022-12-06T12:25:36.138Z,6.15
2022-12-06T12:28:23.368Z,7.47
2022-12-06T12:31:02.844Z,8.63
2022-12-06T12:33:31.225Z,6.95
2022-12-06T12:36:05.454Z,10.40
2022-12-06T12:39:09.389Z,14.55
2022-12-06T12:41:44.521Z,13.75
2022-12-06T12:44:39.244Z,10.40
2022-12-06T12:47:19.274Z,7.18
2022-12-06T12:50:25.033Z,7.88
2022-12-06T12:53:00.084Z,13.25
2022-12-06T12:55:50.136Z,10.57
2022-12-06T12:58:20.359Z,10.13
2022-12-06T13:00:49.964Z,14.20
2022-12-06T13:03:50.302Z,10.70
2022-12-06T13:06:27.969Z,8.93
2022-12-06T13:09:04.366Z,8.82
2022-12-06T13:11:41.329Z,8.07
2022-12-06T13:14:23.715Z,8.05
2022-12-06T13:16:55.591Z,8.90
2022-12-06T13:19:34.121Z,7.90
2022-12-06T13:22:05.588Z,8.25
2022-12-06T13:24:35.645Z,9.00
2022-12-06T13:27:14.303Z,7.68
2022-12-06T13:30:01.445Z,7.15
2022-12-06T13:32:47.498Z,10.18
2022-12-06T13:35:32.573Z,8.65
2022-12-06T13:38:03.510Z,8.27
2022-12-06T13:40:34.722Z,8.00
2022-12-06T13:43:06.182Z,8.00
2022-12-06T13:45:46.658Z,7.03
2022-12-06T13:48:25.915Z,8.57
2022-12-06T13:51:03.485Z,9.68
2022-12-06T13:53:35.789Z,10.27
2022-12-06T13:56:30.165Z,8.88
2022-12-06T13:59:21.114Z,8.18
2022-12-06T14:01:54.678Z,11.90
2022-12-06T14:06:54.677Z,7.75
2022-12-06T14:09:24.953Z,10.18
2022-12-06T14:11:54.093Z,10.35
2022-12-06T14:14:25.491Z,16.27
2022-12-06T14:17:02.812Z,10.88
2022-12-06T14:19:47.436Z,13.23
2022-12-06T14:22:29.535Z,9.52
2022-12-06T14:25:04.751Z,7.20
2022-12-06T14:27:43.306Z,7.38
2022-12-06T14:30:14.790Z,10.65
2022-12-06T14:32:46.811Z,7.50
2022-12-06T14:38:03.239Z,7.72
2022-12-06T14:40:48.795Z,15.68
2022-12-06T14:43:20.251Z,8.48
2022-12-06T14:45:49.078Z,8.52
2022-12-06T14:48:18.197Z,7.47
2022-12-06T14:51:06.651Z,13.13
2022-12-06T14:53:39.871Z,10.13
2022-12-06T14:56:29.685Z,7.78
2022-12-06T14:59:00.983Z,6.72
2022-12-06T15:01:31.644Z,7.05
2022-12-06T15:04:05.229Z,8.43
2022-12-06T15:06:37.070Z,11.68
2022-12-06T15:09:16.318Z,18.65
2022-12-06T15:11:45.503Z,6.63
2022-12-06T15:14:19.860Z,7.57
2022-12-06T15:17:00.271Z,6.88
2022-12-06T15:19:34.392Z,8.13
2022-12-06T15:22:24.864Z,14.23
2022-12-06T15:24:57.311Z,15.65
2022-12-06T15:27:30.653Z,8.80
2022-12-06T15:29:59.483Z,7.10
2022-12-06T15:32:28.975Z,6.82
2022-12-06T15:35:06.609Z,7.85
2022-12-06T15:37:40.026Z,23.27
2022-12-06T15:40:11.139Z,10.40
2022-12-06T15:42:40.221Z,16.00
2022-12-06T15:45:15.448Z,10.10
2022-12-06T15:47:43.823Z,9.52
2022-12-06T15:50:14.729Z,7.05
2022-12-06T15:52:43.005Z,9.70
2022-12-06T15:55:18.102Z,10.80
2022-12-06T15:57:46.364Z,7.18
2022-12-06T16:00:14.889Z,10.60
2022-12-06T16:02:43.283Z,13.93
2022-12-06T16:05:16.802Z,11.40
2022-12-06T16:07:47.207Z,11.27
2022-12-06T16:10:22.056Z,9.52
2022-12-06T16:12:50.776Z,8.70
2022-12-06T16:15:19.066Z,5.82
2022-12-06T16:17:47.550Z,8.07
2022-12-06T16:20:16.471Z,8.85
2022-12-06T16:22:46.158Z,7.90
2022-12-06T16:25:17.354Z,11.75
2022-12-06T16:27:47.003Z,9.45
2022-12-06T16:30:15.588Z,9.00
2022-12-06T16:32:43.888Z,14.10
2022-12-06T16:35:12.246Z,7.05
2022-12-06T16:37:42.696Z,5.88
2022-12-06T16:40:21.354Z,7.53
2022-12-06T16:42:49.887Z,7.57
2022-12-06T16:45:18.715Z,12.57
2022-12-06T16:47:47.001Z,8.63
2022-12-06T16:50:38.789Z,7.53
2022-12-06T16:53:07.174Z,25.17
2022-12-06T16:55:35.683Z,10.93
2022-12-06T16:58:04.041Z,15.02
2022-12-06T17:00:32.702Z,11.65
2022-12-06T17:03:01.230Z,9.52
2022-12-06T17:05:31.807Z,13.20
2022-12-06T17:08:00.647Z,10.05
2022-12-06T17:10:29.129Z,7.43
2022-12-06T17:12:58.065Z,9.68
2022-12-06T17:15:26.623Z,7.68
2022-12-06T17:17:57.189Z,12.65
2022-12-06T17:20:29.485Z,12.80
2022-12-06T17:22:59.201Z,13.35
2022-12-06T17:25:30.449Z,14.40
2022-12-06T17:28:00.326Z,13.73
2022-12-06T17:30:28.694Z,31.52
2022-12-06T17:32:57.123Z,13.88
2022-12-06T17:35:25.462Z,14.25
2022-12-06T17:37:54.037Z,9.25
2022-12-06T17:40:22.965Z,12.52
2022-12-06T17:42:51.253Z,10.32
2022-12-06T17:45:24.635Z,7.25
2022-12-06T17:47:53.463Z,9.02
2022-12-06T17:50:21.839Z,8.10
2022-12-06T17:52:50.520Z,9.45
2022-12-06T17:55:19.021Z,8.30
2022-12-06T17:57:47.552Z,7.43
2022-12-06T18:00:16.727Z,14.75
2022-12-06T18:02:46.001Z,13.77
2022-12-06T18:05:15.583Z,12.25
2022-12-06T18:07:49.895Z,11.55
2022-12-06T18:10:19.931Z,13.30
2022-12-06T18:12:48.651Z,18.65
2022-12-06T18:15:17.372Z,19.27
2022-12-06T18:17:46.604Z,22.77
2022-12-06T18:20:18.571Z,11.52
2022-12-06T18:22:48.831Z,10.77
2022-12-06T18:25:18.418Z,11.93
2022-12-06T18:27:51.724Z,10.25
2022-12-06T18:30:22.062Z,12.93
2022-12-06T18:32:53.282Z,10.27
2022-12-06T18:35:23.741Z,18.77
2022-12-06T18:37:53.933Z,30.58
2022-12-06T18:40:23.134Z,14.48
2022-12-06T18:42:51.784Z,9.57
2022-12-06T18:45:26.740Z,13.77
2022-12-06T18:47:56.236Z,12.50
2022-12-06T18:50:24.857Z,16.05
2022-12-06T18:52:53.186Z,10.20
2022-12-06T18:55:21.626Z,8.90
2022-12-06T18:57:50.611Z,11.05
2022-12-06T19:00:19.313Z,11.27
2022-12-06T19:02:48.063Z,13.43
2022-12-06T19:05:27.725Z,39.05
2022-12-06T19:08:05.100Z,13.85
2022-12-06T19:10:33.439Z,15.10
2022-12-06T19:13:05.772Z,44.25
2022-12-06T19:15:34.572Z,46.13
2022-12-06T19:18:03.525Z,62.30
2022-12-06T19:20:35.494Z,29.60
2022-12-06T19:23:14.784Z,48.10
2022-12-06T19:25:43.427Z,28.00
2022-12-06T19:28:12.976Z,84.82
2022-12-06T19:30:42.102Z,157.30
2022-12-06T19:33:11.419Z,200.25
2022-12-06T19:35:40.329Z,62.63
2022-12-06T19:38:08.941Z,69.93
2022-12-06T19:40:41.971Z,27.65
2022-12-06T19:43:10.825Z,137.30
2022-12-06T19:45:39.341Z,114.32
2022-12-06T19:48:08.323Z,71.18
2022-12-06T19:50:37.940Z,125.43
2022-12-06T19:53:06.665Z,104.63
2022-12-06T19:55:35.063Z,96.72
2022-12-06T19:58:11.605Z,88.75
2022-12-06T20:00:40.208Z,57.05
2022-12-06T20:03:09.751Z,49.20
2022-12-06T20:05:38.630Z,64.97
2022-12-06T20:08:07.566Z,33.88
2022-12-06T20:10:40.231Z,53.50
2022-12-06T20:13:08.856Z,85.97
2022-12-06T20:15:37.500Z,64.88
2022-12-06T20:18:06.414Z,45.30
2022-12-06T20:20:35.187Z,35.88
2022-12-06T20:23:06.172Z,31.02
2022-12-06T20:25:39.041Z,34.90
2022-12-06T20:28:13.174Z,50.28
2022-12-06T20:30:43.769Z,42.58
2022-12-06T20:33:13.693Z,38.35
2022-12-06T20:35:42.248Z,39.08
2022-12-06T20:38:10.713Z,26.55
2022-12-06T20:40:42.823Z,30.33
2022-12-06T20:43:11.663Z,26.08
2022-12-06T20:45:41.627Z,36.05
2022-12-06T20:48:10.654Z,43.42
2022-12-06T20:50:40.364Z,55.40
2022-12-06T20:53:11.253Z,35.22
2022-12-06T20:55:42.999Z,18.00
2022-12-06T20:58:12.137Z,18.45
2022-12-06T21:00:41.892Z,80.20
2022-12-06T21:03:10.711Z,25.20
2022-12-06T21:05:43.377Z,12.95
2022-12-06T21:08:13.788Z,22.55
2022-12-06T21:11:00.274Z,11.00
2022-12-06T21:13:31.392Z,11.20
2022-12-06T21:16:30.465Z,10.70
2022-12-06T21:19:28.108Z,14.73
2022-12-06T21:21:56.790Z,10.95
2022-12-06T21:24:24.994Z,10.25
2022-12-06T21:26:53.519Z,11.50
2022-12-06T21:29:30.381Z,10.98
2022-12-06T21:32:02.362Z,10.38
2022-12-06T21:34:36.740Z,11.95
2022-12-06T21:37:08.106Z,14.27
2022-12-06T21:39:41.420Z,15.23
2022-12-06T21:42:10.213Z,15.27
2022-12-06T21:44:40.924Z,15.05
2022-12-06T21:47:10.154Z,17.42
2022-12-06T21:49:39.876Z,16.95
2022-12-06T21:52:09.529Z,22.77
2022-12-06T21:54:38.216Z,17.33
2022-12-06T21:57:06.689Z,26.80
2022-12-06T21:59:34.999Z,24.80
2022-12-06T22:02:03.317Z,19.95
2022-12-06T22:04:31.751Z,18.67
2022-12-06T22:07:00.180Z,22.67
2022-12-06T22:09:28.441Z,13.20
2022-12-06T22:11:58.276Z,12.77
2022-12-06T22:14:27.549Z,13.65
2022-12-06T22:16:59.052Z,15.75
2022-12-06T22:19:29.358Z,23.17
2022-12-06T22:21:59.965Z,24.23
2022-12-06T22:24:29.505Z,23.40
2022-12-06T22:26:59.496Z,20.13
2022-12-06T22:29:30.227Z,16.42
2022-12-06T22:31:59.419Z,11.43
2022-12-06T22:34:30.127Z,15.65
2022-12-06T22:37:01.201Z,17.42
2022-12-06T22:39:30.170Z,18.10
2022-12-06T22:41:59.121Z,22.10
2022-12-06T22:44:27.925Z,17.75
2022-12-06T22:46:56.877Z,15.85
2022-12-06T22:49:26.705Z,14.18
2022-12-06T22:51:55.680Z,15.57
2022-12-06T22:54:26.066Z,14.63
2022-12-06T22:56:54.684Z,15.23
2022-12-06T22:59:22.945Z,14.82
2022-12-06T23:01:51.543Z,13.63
2022-12-06T23:04:20.805Z,21.98
2022-12-06T23:06:51.289Z,10.32
2022-12-06T23:09:19.803Z,10.13
2022-12-06T23:11:48.083Z,11.98
2022-12-06T23:14:16.357Z,12.15
2022-12-06T23:16:45.157Z,8.95
2022-12-06T23:19:14.769Z,10.02
2022-12-06T23:21:43.911Z,11.15
2022-12-06T23:24:15.264Z,12.52
2022-12-06T23:26:54.548Z,19.75
2022-12-06T23:29:26.417Z,19.27
2022-12-06T23:31:55.173Z,15.25
2022-12-06T23:34:25.655Z,11.00
2022-12-06T23:36:56.637Z,11.68
2022-12-06T23:39:25.427Z,10.45
2022-12-06T23:41:55.468Z,11.43
2022-12-06T23:44:24.359Z,9.02
2022-12-06T23:46:53.045Z,9.93
2022-12-06T23:49:23.109Z,11.75
2022-12-06T23:51:51.736Z,13.10
2022-12-06T23:54:20.466Z,11.68
2022-12-06T23:56:49.168Z,10.75
2022-12-06T23:59:19.144Z,8.80
